Time;durP1;ratioP1;P1;durP2;ratioP2;P2;SDS_P1;SDS_P2;PMS_P1;PMS_P2;Temp;Humidity;BMP_temperature;BMP_pressure;BME280_temperature;BME280_humidity;BME280_pressure;Samples;Min_cycle;Max_cycle;Signal;HPM_P1;HPM_P2
2022/07/06 00:01:33;;;;;;;336.17;317.40;;;14.00;99.90;;;;;;5114544;28;20039;-59
2022/07/06 00:04:00;;;;;;;398.48;375.35;;;14.10;99.90;;;;;;5114091;28;20163;-59
2022/07/06 00:06:26;;;;;;;403.48;379.80;;;14.10;99.90;;;;;;5115189;28;20101;-59
2022/07/06 00:08:52;;;;;;;328.73;310.55;;;14.00;99.90;;;;;;5114374;28;20090;-59
2022/07/06 00:11:17;;;;;;;291.05;275.75;;;13.90;99.90;;;;;;5114235;28;20098;-59
2022/07/06 00:13:43;;;;;;;377.77;357.85;;;13.70;99.90;;;;;;5114651;28;20478;-59
2022/07/06 00:16:09;;;;;;;313.50;298.38;;;13.50;99.90;;;;;;5114597;28;20404;-59
2022/07/06 00:18:35;;;;;;;351.33;333.65;;;13.40;99.90;;;;;;5113527;28;20505;-59
2022/07/06 00:21:00;;;;;;;365.77;346.63;;;13.40;99.90;;;;;;5114126;28;20047;-59
2022/07/06 00:23:26;;;;;;;307.75;291.95;;;13.30;99.90;;;;;;5113193;28;20047;-59
2022/07/06 00:25:52;;;;;;;378.08;355.50;;;13.30;99.90;;;;;;5113322;28;20031;-59
2022/07/06 00:28:18;;;;;;;436.15;410.80;;;13.20;99.90;;;;;;5114599;28;20043;-59
2022/07/06 00:30:43;;;;;;;488.35;458.85;;;13.20;99.90;;;;;;5114080;28;20119;-59
2022/07/06 00:33:09;;;;;;;520.17;487.98;;;13.20;99.90;;;;;;5113840;28;20092;-59
2022/07/06 00:35:35;;;;;;;381.98;361.08;;;13.10;99.90;;;;;;5114647;28;20043;-59
2022/07/06 00:38:01;;;;;;;464.98;437.50;;;13.10;99.90;;;;;;5094820;28;20481;-59
2022/07/06 00:40:27;;;;;;;389.20;366.67;;;13.10;99.90;;;;;;5095413;28;20088;-59
2022/07/06 00:42:52;;;;;;;356.33;336.20;;;13.10;99.90;;;;;;5112710;28;20043;-59
2022/07/06 00:45:19;;;;;;;347.33;328.48;;;13.10;99.90;;;;;;5111716;28;20982;-59
2022/07/06 00:47:45;;;;;;;432.50;408.05;;;13.10;99.90;;;;;;5113851;28;20112;-59
2022/07/06 00:50:14;;;;;;;403.00;380.98;;;13.10;99.90;;;;;;5114057;28;20043;-59
2022/07/06 00:52:42;;;;;;;460.73;433.17;;;13.10;99.90;;;;;;5113145;28;20055;-59
2022/07/06 00:55:10;;;;;;;340.83;322.73;;;13.10;99.90;;;;;;5114204;28;20173;-59
2022/07/06 00:57:37;;;;;;;392.60;371.35;;;13.10;99.90;;;;;;5113848;28;20484;-59
2022/07/06 01:00:05;;;;;;;387.25;365.50;;;13.10;99.90;;;;;;5112767;28;20051;-59
2022/07/06 01:02:32;;;;;;;468.63;441.33;;;13.10;99.90;;;;;;5113792;28;20108;-59
2022/07/06 01:04:57;;;;;;;441.15;415.42;;;13.10;99.90;;;;;;5114088;28;20082;-59
2022/07/06 01:07:24;;;;;;;479.38;450.67;;;13.10;99.90;;;;;;5112547;28;20087;-59
2022/07/06 01:09:50;;;;;;;474.33;445.42;;;13.10;99.90;;;;;;5075521;28;20044;-59
2022/07/06 01:12:16;;;;;;;471.10;443.75;;;13.10;99.90;;;;;;5078979;28;20499;-59
2022/07/06 01:14:42;;;;;;;513.15;481.80;;;13.10;99.90;;;;;;5112478;28;20096;-59
2022/07/06 01:17:09;;;;;;;467.98;439.85;;;13.00;99.90;;;;;;5095720;28;20130;-59
2022/07/06 01:19:35;;;;;;;519.47;487.70;;;13.00;99.90;;;;;;5091818;28;20394;-59
2022/07/06 01:22:00;;;;;;;445.65;419.85;;;13.00;99.90;;;;;;5091999;28;20052;-59
2022/07/06 01:24:27;;;;;;;411.40;387.83;;;13.00;99.90;;;;;;5095304;28;20389;-59
2022/07/06 01:26:53;;;;;;;460.67;432.50;;;13.00;99.90;;;;;;5113655;28;20043;-59
2022/07/06 01:29:19;;;;;;;406.50;383.48;;;13.10;99.90;;;;;;5094400;28;20051;-59
2022/07/06 01:31:48;;;;;;;349.15;330.05;;;13.00;99.90;;;;;;5095540;28;20047;-59
2022/07/06 01:34:15;;;;;;;422.35;397.55;;;13.10;99.90;;;;;;5112847;28;20426;-59
2022/07/06 01:36:41;;;;;;;480.42;450.73;;;13.00;99.90;;;;;;5095042;28;20047;-59
2022/07/06 01:39:08;;;;;;;451.23;424.10;;;13.00;99.90;;;;;;5113403;28;20055;-59
2022/07/06 01:41:36;;;;;;;416.65;392.38;;;13.00;99.90;;;;;;5094053;28;20151;-59
2022/07/06 01:44:03;;;;;;;464.10;437.17;;;13.00;99.90;;;;;;5094717;28;20079;-59
2022/07/06 01:46:30;;;;;;;397.75;374.85;;;13.00;99.90;;;;;;5095002;28;20036;-59
2022/07/06 01:48:55;;;;;;;352.90;332.08;;;13.00;99.90;;;;;;5112409;28;20048;-59
2022/07/06 01:51:21;;;;;;;426.27;400.45;;;13.00;99.90;;;;;;5094292;28;20062;-59
2022/07/06 01:53:48;;;;;;;441.30;414.83;;;13.00;99.90;;;;;;5113371;28;20048;-59
2022/07/06 01:56:15;;;;;;;369.20;348.67;;;13.00;99.90;;;;;;5094280;28;20043;-59
2022/07/06 01:58:44;;;;;;;391.70;368.38;;;13.00;99.90;;;;;;5098558;28;20109;-59
2022/07/06 02:01:14;;;;;;;365.15;344.85;;;13.00;99.90;;;;;;5098964;28;20043;-59
2022/07/06 02:03:40;;;;;;;362.90;342.48;;;13.00;99.90;;;;;;5081410;28;20062;-59
2022/07/06 02:06:06;;;;;;;336.08;316.98;;;13.10;99.90;;;;;;5098671;28;20489;-59
2022/07/06 02:08:33;;;;;;;401.27;377.75;;;13.10;99.90;;;;;;5116956;28;20039;-59
2022/07/06 02:10:59;;;;;;;370.48;350.05;;;13.10;99.90;;;;;;5098361;28;20096;-59
2022/07/06 02:13:25;;;;;;;379.08;358.65;;;13.20;99.90;;;;;;5098867;28;20052;-59
2022/07/06 02:15:51;;;;;;;368.58;348.10;;;13.20;99.90;;;;;;5098902;28;20409;-59
2022/07/06 02:18:17;;;;;;;398.45;375.35;;;13.20;99.90;;;;;;5097724;28;20043;-59
2022/07/06 02:20:43;;;;;;;371.58;351.13;;;13.20;99.90;;;;;;5098660;28;20443;-59
2022/07/06 02:23:10;;;;;;;336.23;316.77;;;13.20;99.90;;;;;;5117130;28;20051;-59
2022/07/06 02:25:35;;;;;;;341.48;322.95;;;13.30;99.90;;;;;;5114688;28;20036;-59
2022/07/06 02:28:01;;;;;;;378.80;357.77;;;13.30;99.90;;;;;;5115119;28;20054;-59
2022/07/06 02:30:27;;;;;;;455.05;428.15;;;13.30;99.90;;;;;;5114857;28;20096;-59
2022/07/06 02:32:54;;;;;;;337.95;319.80;;;13.30;99.90;;;;;;5097332;28;20087;-59
2022/07/06 02:35:19;;;;;;;;;;;13.40;99.90;;;;;;5115083;28;20105;-59
2022/07/06 02:37:45;;;;;;;303.50;286.52;;;13.40;99.90;;;;;;5097807;28;19923;-59
2022/07/06 02:40:11;;;;;;;195.25;184.90;;;13.40;99.90;;;;;;5098446;28;20077;-59
2022/07/06 02:42:37;;;;;;;216.55;205.63;;;13.40;99.90;;;;;;5116278;28;20067;-59
2022/07/06 02:45:05;;;;;;;364.30;343.85;;;13.40;99.90;;;;;;5096507;28;20049;-59
2022/07/06 02:47:31;;;;;;;337.67;320.52;;;13.40;99.90;;;;;;5116707;28;20059;-59
2022/07/06 02:49:57;;;;;;;362.60;343.65;;;13.30;99.90;;;;;;5097740;28;20481;-59
2022/07/06 02:52:23;;;;;;;323.60;305.85;;;13.30;99.90;;;;;;5097273;28;20047;-59
2022/07/06 02:54:49;;;;;;;298.60;282.70;;;13.10;99.90;;;;;;5116351;28;20077;-59
2022/07/06 02:57:15;;;;;;;378.95;358.02;;;13.00;99.90;;;;;;5097932;28;20138;-59
2022/07/06 02:59:42;;;;;;;383.05;362.00;;;12.90;99.90;;;;;;5097302;28;20047;-59
2022/07/06 03:02:08;;;;;;;355.58;335.73;;;12.80;99.90;;;;;;5097809;28;20047;-59
2022/07/06 03:04:34;;;;;;;322.70;305.08;;;12.70;99.90;;;;;;5097767;28;20546;-59
2022/07/06 03:07:00;;;;;;;375.15;354.75;;;13.00;99.90;;;;;;5115409;28;20048;-59
2022/07/06 03:09:26;;;;;;;;;;;12.50;99.90;;;;;;5096094;28;20073;-59
2022/07/06 03:11:52;;;;;;;396.70;373.85;;;12.40;99.90;;;;;;5097341;28;19998;-59
2022/07/06 03:14:19;;;;;;;363.00;342.70;;;;;;;;;;5097105;28;20119;-59
2022/07/06 03:16:48;;;;;;;406.35;383.25;;;12.20;99.90;;;;;;5097984;28;20052;-59
2022/07/06 03:19:14;;;;;;;368.77;347.52;;;12.10;99.90;;;;;;5096841;28;20051;-59
2022/07/06 03:21:40;;;;;;;399.70;376.92;;;12.10;99.90;;;;;;5115260;28;20130;-59
2022/07/06 03:24:06;;;;;;;385.85;363.98;;;11.90;99.90;;;;;;5097738;28;20083;-59
2022/07/06 03:26:32;;;;;;;422.50;398.00;;;11.90;99.90;;;;;;5097370;28;20078;-59
2022/07/06 03:28:58;;;;;;;;;;;11.90;99.90;;;;;;5096495;28;20050;-59
2022/07/06 03:31:23;;;;;;;444.23;417.42;;;11.80;99.90;;;;;;5115046;28;20285;-59
2022/07/06 03:33:49;;;;;;;407.45;383.40;;;11.70;99.90;;;;;;5114608;28;20397;-59
2022/07/06 03:36:15;;;;;;;401.85;378.30;;;11.70;99.90;;;;;;5097130;28;20042;-59
2022/07/06 03:38:41;;;;;;;425.05;400.30;;;11.70;99.90;;;;;;5115713;28;20052;-59
2022/07/06 03:41:07;;;;;;;392.50;369.63;;;11.70;99.90;;;;;;5095955;28;20039;-59
2022/07/06 03:43:33;;;;;;;514.92;484.80;;;11.70;99.90;;;;;;5096741;28;20090;-59
2022/07/06 03:45:59;;;;;;;427.15;402.52;;;11.70;99.90;;;;;;5115229;28;20075;-59
2022/07/06 03:48:25;;;;;;;460.70;433.58;;;11.70;99.90;;;;;;5096589;28;20044;-59
2022/07/06 03:50:51;;;;;;;470.23;443.00;;;11.70;99.90;;;;;;5080057;28;20059;-59
2022/07/06 03:53:17;;;;;;;424.13;400.48;;;11.70;99.90;;;;;;5115392;28;20075;-59
2022/07/06 03:55:43;;;;;;;413.30;389.58;;;11.80;99.90;;;;;;5114671;28;20397;-58
2022/07/06 03:58:10;;;;;;;432.13;407.08;;;11.80;99.90;;;;;;5096659;28;20126;-59
2022/07/06 04:00:39;;;;;;;449.48;423.13;;;11.80;99.90;;;;;;5096985;28;20553;-59
2022/07/06 04:03:09;;;;;;;402.80;381.20;;;11.80;99.90;;;;;;5078670;28;20083;-59
2022/07/06 04:05:41;;;;;;;506.02;475.70;;;11.80;99.90;;;;;;5096956;28;20040;-59
2022/07/06 04:08:07;;;;;;;409.20;386.55;;;11.70;99.90;;;;;;5096875;28;20043;-59
2022/07/06 04:10:39;;;;;;;441.90;416.42;;;11.70;99.90;;;;;;5096128;28;20051;-59
2022/07/06 04:13:05;;;;;;;466.67;438.90;;;11.70;99.90;;;;;;5096191;28;20040;-59
2022/07/06 04:15:31;;;;;;;466.70;438.40;;;11.70;99.90;;;;;;5096809;28;20546;-59
2022/07/06 04:17:59;;;;;;;378.65;357.05;;;11.70;99.90;;;;;;5095704;28;20544;-59
2022/07/06 04:20:30;;;;;;;352.33;332.13;;;11.80;99.90;;;;;;5095248;28;20439;-59
2022/07/06 04:22:57;;;;;;;349.13;328.65;;;11.80;99.90;;;;;;5096452;28;20043;-59
2022/07/06 04:25:25;;;;;;;431.67;406.08;;;11.80;99.90;;;;;;5095878;28;20470;-59
2022/07/06 04:27:51;;;;;;;395.95;373.00;;;11.80;99.90;;;;;;5096173;28;19930;-59
2022/07/06 04:30:17;;;;;;;;;;;11.80;99.90;;;;;;5094932;28;20035;-58
2022/07/06 04:32:43;;;;;;;;;;;11.80;99.90;;;;;;5113468;28;25123;-59
2022/07/06 04:35:09;;;;;;;;;;;11.80;99.90;;;;;;5079531;28;19924;-59
2022/07/06 04:37:35;;;;;;;487.38;459.35;;;11.90;99.90;;;;;;5095632;28;20400;-59
2022/07/06 04:40:01;;;;;;;432.00;406.92;;;11.90;99.90;;;;;;5095831;28;20047;-59
2022/07/06 04:42:28;;;;;;;391.73;370.10;;;12.00;99.90;;;;;;5095473;28;20201;-59
2022/07/06 04:44:55;;;;;;;318.50;302.55;;;12.10;99.90;;;;;;5095011;28;20490;-59
2022/07/06 04:47:21;;;;;;;379.77;358.58;;;12.20;99.90;;;;;;5095550;28;20048;-59
2022/07/06 04:49:47;;;;;;;344.10;325.20;;;12.30;99.90;;;;;;5095559;28;20040;-59
2022/07/06 04:52:14;;;;;;;347.92;328.85;;;12.40;99.90;;;;;;5094971;28;20048;-59
2022/07/06 04:54:39;;;;;;;310.67;294.02;;;12.50;99.90;;;;;;5096127;28;20496;-59
2022/07/06 04:57:06;;;;;;;400.70;378.45;;;12.60;99.90;;;;;;5095125;28;20045;-59
2022/07/06 04:59:32;;;;;;;349.42;331.20;;;12.70;99.90;;;;;;5095172;28;20044;-59
2022/07/06 05:01:59;;;;;;;375.38;353.73;;;12.70;99.90;;;;;;5114050;28;20105;-59
2022/07/06 05:04:25;;;;;;;375.90;356.10;;;12.70;99.90;;;;;;5095336;28;20517;-59
2022/07/06 05:06:51;;;;;;;354.77;334.45;;;12.70;99.90;;;;;;5095064;28;20062;-59
2022/07/06 05:09:16;;;;;;;365.48;345.58;;;12.80;99.90;;;;;;5095507;28;20039;-59
2022/07/06 05:11:44;;;;;;;339.13;319.42;;;12.80;99.90;;;;;;5095384;28;20054;-59
2022/07/06 05:14:11;;;;;;;353.27;333.33;;;12.80;99.90;;;;;;5094251;28;20039;-59
2022/07/06 05:16:37;;;;;;;375.50;353.75;;;12.90;99.90;;;;;;5095430;28;20086;-59
2022/07/06 05:19:04;;;;;;;356.48;337.00;;;12.90;99.90;;;;;;5094953;28;20068;-59
2022/07/06 05:21:30;;;;;;;350.75;331.83;;;12.90;99.90;;;;;;5094681;28;20050;-59
2022/07/06 05:23:56;;;;;;;283.35;269.08;;;12.90;99.90;;;;;;5095097;28;20055;-59
2022/07/06 05:26:21;;;;;;;271.60;256.40;;;13.00;99.90;;;;;;5112715;28;20043;-59
2022/07/06 05:28:48;;;;;;;387.33;364.50;;;13.00;99.90;;;;;;5112311;28;20044;-59
2022/07/06 05:31:17;;;;;;;405.85;383.52;;;13.10;99.90;;;;;;5111219;28;20036;-59
2022/07/06 05:33:43;;;;;;;345.27;326.80;;;13.10;99.90;;;;;;5094058;28;20050;-59
2022/07/06 05:36:09;;;;;;;351.27;330.85;;;13.20;99.90;;;;;;5078123;28;20549;-59
2022/07/06 05:38:35;;;;;;;262.55;248.23;;;13.30;99.90;;;;;;5112163;28;20048;-59
2022/07/06 05:41:01;;;;;;;323.75;306.52;;;13.40;99.90;;;;;;5093591;28;20044;-59
2022/07/06 05:43:27;;;;;;;300.48;285.27;;;13.50;99.90;;;;;;5111900;28;20071;-59
2022/07/06 05:45:55;;;;;;;325.85;308.95;;;13.60;99.90;;;;;;5095337;28;20054;-59
2022/07/06 05:51:09;;;;;;;203.95;194.13;;;13.80;99.90;;;;;;5113265;28;20086;-59
2022/07/06 05:53:35;;;;;;;215.30;204.45;;;13.90;99.90;;;;;;5113098;28;20075;-59
2022/07/06 05:56:00;;;;;;;224.80;213.13;;;14.00;99.90;;;;;;5112202;28;20217;-59
2022/07/06 05:58:29;;;;;;;262.00;248.15;;;14.00;99.90;;;;;;5094238;28;20048;-59
2022/07/06 06:00:58;;;;;;;213.02;202.70;;;14.10;99.90;;;;;;5094509;28;20046;-59
2022/07/06 06:03:24;;;;;;;249.70;236.55;;;14.20;99.90;;;;;;5077307;28;20209;-59
2022/07/06 06:05:50;;;;;;;201.90;191.98;;;14.30;99.90;;;;;;5113197;28;20135;-59
2022/07/06 06:08:18;;;;;;;217.05;205.60;;;14.40;99.90;;;;;;5094535;28;20084;-58
2022/07/06 06:10:43;;;;;;;226.73;214.57;;;14.50;99.90;;;;;;5093889;28;20048;-59
2022/07/06 06:13:12;;;;;;;281.77;266.95;;;14.70;99.90;;;;;;5077798;28;20044;-59
2022/07/06 06:15:40;;;;;;;255.40;242.05;;;14.90;99.90;;;;;;5093664;28;20047;-59
2022/07/06 06:18:06;;;;;;;270.48;255.68;;;15.00;99.90;;;;;;5094485;28;20043;-59
2022/07/06 06:20:32;;;;;;;304.30;287.05;;;15.30;99.90;;;;;;5094688;28;20054;-59
2022/07/06 06:22:59;;;;;;;293.13;278.65;;;15.40;99.90;;;;;;5112068;28;20054;-59
2022/07/06 06:25:34;;;;;;;338.98;321.33;;;15.70;99.90;;;;;;5112303;28;20035;-59
2022/07/06 06:28:01;;;;;;;338.45;318.98;;;15.60;99.90;;;;;;5094522;28;20068;-59
2022/07/06 06:30:27;;;;;;;295.77;280.58;;;15.40;99.90;;;;;;5112284;28;20036;-59
2022/07/06 06:33:14;;;;;;;485.42;457.98;;;15.40;99.90;;;;;;5108193;28;20055;-58
2022/07/06 06:35:58;;;;;;;277.48;264.10;;;15.30;99.90;;;;;;5091369;28;20592;-59
2022/07/06 06:38:25;;;;;;;274.08;260.35;;;15.10;99.90;;;;;;5091471;28;20052;-59
2022/07/06 06:40:52;;;;;;;229.27;217.95;;;15.10;99.90;;;;;;5101973;28;20059;-59
2022/07/06 06:43:18;;;;;;;433.52;405.10;;;15.00;99.90;;;;;;5107062;28;20052;-59
2022/07/06 06:45:54;;;;;;;304.55;288.92;;;14.90;99.90;;;;;;5096759;28;20156;-59
2022/07/06 06:48:20;;;;;;;302.58;286.98;;;14.70;99.90;;;;;;5116006;28;20052;-59
2022/07/06 06:50:46;;;;;;;327.88;309.38;;;14.50;99.90;;;;;;5114366;28;20043;-59
2022/07/06 06:53:12;;;;;;;335.58;317.30;;;14.20;99.90;;;;;;5097095;28;20046;-59
2022/07/06 06:55:37;;;;;;;281.13;265.50;;;14.00;99.90;;;;;;5114625;28;20047;-59
2022/07/06 06:58:03;;;;;;;335.75;316.73;;;13.90;99.90;;;;;;5114987;28;20054;-59
2022/07/06 07:00:29;;;;;;;335.73;317.33;;;13.90;99.90;;;;;;5096585;28;20039;-59
2022/07/06 07:02:55;;;;;;;309.75;294.15;;;13.90;99.90;;;;;;5115528;28;20052;-59
2022/07/06 07:05:21;;;;;;;359.40;338.83;;;13.90;99.90;;;;;;5114649;28;20063;-59
2022/07/06 07:07:47;;;;;;;423.42;398.65;;;14.00;99.90;;;;;;5114967;28;20109;-59
2022/07/06 07:10:12;;;;;;;384.58;361.50;;;14.00;99.90;;;;;;5114946;28;20038;-59
2022/07/06 07:12:44;;;;;;;439.15;413.15;;;14.10;99.90;;;;;;5114253;28;20400;-59
2022/07/06 07:15:10;;;;;;;455.77;429.85;;;14.00;99.90;;;;;;5115281;28;20088;-59
2022/07/06 07:17:36;;;;;;;377.75;356.70;;;14.10;99.90;;;;;;5114237;28;20542;-59
2022/07/06 07:20:01;;;;;;;407.25;384.70;;;14.20;99.90;;;;;;5114762;28;20052;-59
2022/07/06 07:22:27;;;;;;;356.60;337.52;;;14.40;99.90;;;;;;5115412;28;20093;-59
2022/07/06 07:24:53;;;;;;;459.42;430.80;;;14.40;99.90;;;;;;5115375;28;20039;-59
2022/07/06 07:27:18;;;;;;;389.73;367.75;;;14.40;99.90;;;;;;5114327;28;20043;-59
2022/07/06 07:29:44;;;;;;;365.05;344.20;;;14.50;99.90;;;;;;5115157;28;20031;-58
2022/07/06 07:32:10;;;;;;;441.65;415.15;;;14.60;99.90;;;;;;5114326;28;20462;-59
2022/07/06 07:34:36;;;;;;;313.40;296.95;;;14.60;99.90;;;;;;5114412;28;20043;-59
2022/07/06 07:37:02;;;;;;;366.65;346.00;;;14.70;99.90;;;;;;5115139;28;20118;-59
2022/07/06 07:39:27;;;;;;;323.08;306.70;;;14.80;99.90;;;;;;5105137;28;20040;-59
2022/07/06 07:41:53;;;;;;;334.80;316.98;;;14.90;99.90;;;;;;5114507;28;20086;-59
2022/07/06 07:44:19;;;;;;;233.40;222.60;;;15.10;99.90;;;;;;5114599;28;20091;-59
2022/07/06 07:46:45;;;;;;;245.23;233.77;;;15.30;99.90;;;;;;5115095;28;20485;-59
2022/07/06 07:49:10;;;;;;;184.93;176.45;;;15.60;99.90;;;;;;5113863;28;20397;-59
2022/07/06 07:51:37;;;;;;;187.88;178.88;;;15.90;99.90;;;;;;5096733;28;20094;-59
2022/07/06 07:54:03;;;;;;;206.48;195.98;;;16.20;99.90;;;;;;5106390;28;20090;-59
2022/07/06 07:56:29;;;;;;;263.98;249.88;;;16.40;99.90;;;;;;5105120;28;20043;-59
2022/07/06 07:58:54;;;;;;;175.02;167.27;;;16.50;99.90;;;;;;5114175;28;20103;-59
2022/07/06 08:01:26;;;;;;;287.58;273.30;;;16.70;99.90;;;;;;5095296;28;20813;-59
2022/07/06 08:03:51;;;;;;;222.15;212.45;;;16.70;99.90;;;;;;5114770;28;20046;-59
2022/07/06 08:06:17;;;;;;;285.88;273.35;;;16.60;99.90;;;;;;5114902;28;20036;-59
2022/07/06 08:08:43;;;;;;;245.52;234.23;;;16.50;99.90;;;;;;5113233;28;20040;-59
2022/07/06 08:11:09;;;;;;;252.20;239.73;;;16.40;99.90;;;;;;5113983;28;20165;-59
2022/07/06 08:13:36;;;;;;;301.55;285.58;;;16.50;99.90;;;;;;5114139;28;20032;-59
2022/07/06 08:16:02;;;;;;;281.50;267.80;;;16.60;99.90;;;;;;5108229;28;20122;-59
2022/07/06 08:18:28;;;;;;;350.67;332.75;;;16.70;99.90;;;;;;5093810;28;20105;-59
2022/07/06 08:20:56;;;;;;;224.70;214.15;;;16.90;99.90;;;;;;5110053;28;20058;-59
2022/07/06 08:23:23;;;;;;;427.60;403.80;;;17.20;99.90;;;;;;5113451;28;20406;-59
2022/07/06 08:25:49;;;;;;;859.25;587.15;;;;;;;;;;5113944;28;20040;-59
2022/07/06 08:28:15;;;;;;;598.70;556.28;;;17.60;99.90;;;;;;5111444;28;20473;-59
2022/07/06 08:30:40;;;;;;;1999.90;999.90;;;17.80;99.90;;;;;;5112968;28;20179;-59
2022/07/06 08:33:06;;;;;;;507.60;475.95;;;17.70;99.90;;;;;;5114382;28;20044;-59
2022/07/06 08:35:32;;;;;;;508.02;481.23;;;17.70;99.90;;;;;;5114203;28;20104;-59
2022/07/06 08:37:57;;;;;;;414.55;394.60;;;17.70;99.90;;;;;;5112638;28;20043;-59
2022/07/06 08:40:24;;;;;;;493.27;464.92;;;17.80;99.90;;;;;;5114087;28;20170;-59
2022/07/06 08:42:54;;;;;;;537.38;507.15;;;17.90;99.90;;;;;;5105499;28;20122;-60
2022/07/06 08:45:20;;;;;;;457.17;432.52;;;18.00;99.90;;;;;;5112956;28;20048;-59
2022/07/06 08:47:49;;;;;;;472.92;447.35;;;18.00;99.90;;;;;;5103747;28;20085;-59
2022/07/06 08:50:16;;;;;;;1999.90;999.90;;;18.00;99.90;;;;;;5106718;28;20055;-59
2022/07/06 08:52:42;;;;;;;1999.90;999.90;;;17.90;99.90;;;;;;5112276;28;20044;-59
2022/07/06 08:55:09;;;;;;;1999.90;999.90;;;17.60;99.90;;;;;;5110347;28;20488;-59
2022/07/06 08:57:35;;;;;;;583.80;549.42;;;17.50;99.90;;;;;;5112755;28;20054;-59
2022/07/06 09:00:01;;;;;;;1999.90;999.90;;;17.50;99.90;;;;;;5112758;28;20124;-59
2022/07/06 09:02:27;;;;;;;1999.90;999.90;;;17.70;99.90;;;;;;5113717;28;20108;-59
2022/07/06 09:04:57;;;;;;;1999.90;999.90;;;17.80;99.90;;;;;;5093694;28;20052;-59
2022/07/06 09:07:27;;;;;;;1999.90;999.90;;;17.90;99.90;;;;;;5112116;28;20047;-59
2022/07/06 09:09:54;;;;;;;1999.90;999.90;;;18.00;99.90;;;;;;5112335;28;20082;-59
2022/07/06 09:12:19;;;;;;;1999.90;999.90;;;18.10;99.90;;;;;;5111846;28;20048;-59
2022/07/06 09:14:45;;;;;;;1999.90;999.90;;;18.20;99.90;;;;;;5112986;28;20054;-59
2022/07/06 09:17:12;;;;;;;1999.90;999.90;;;18.20;99.90;;;;;;5112770;28;20047;-59
2022/07/06 09:19:38;;;;;;;1999.90;999.90;;;18.20;99.90;;;;;;5112163;28;20044;-59
2022/07/06 09:22:04;;;;;;;1999.90;999.90;;;18.40;99.90;;;;;;5113055;28;20047;-59
2022/07/06 09:24:31;;;;;;;1999.90;999.90;;;18.60;99.90;;;;;;5113530;28;20068;-59
2022/07/06 09:26:58;;;;;;;1999.90;999.90;;;;;;;;;;5112969;28;20047;-59
2022/07/06 09:29:31;;;;;;;1999.90;999.90;;;18.60;99.90;;;;;;5113521;28;20036;-59
2022/07/06 09:31:59;;;;;;;1999.90;999.90;;;18.60;99.90;;;;;;5113256;28;20131;-59
2022/07/06 09:34:41;;;;;;;1999.90;999.90;;;18.60;99.90;;;;;;5112497;28;20434;-59
2022/07/06 09:37:06;;;;;;;1999.90;999.90;;;18.50;99.90;;;;;;5112173;28;20126;-59
2022/07/06 09:39:32;;;;;;;1999.90;999.90;;;18.40;99.90;;;;;;5111579;28;20533;-59
2022/07/06 09:42:00;;;;;;;1999.90;999.90;;;18.40;99.90;;;;;;5112078;28;20051;-59
2022/07/06 09:44:29;;;;;;;1999.90;999.90;;;18.40;99.90;;;;;;5104064;28;20078;-59
2022/07/06 09:46:57;;;;;;;1999.90;999.90;;;18.60;99.90;;;;;;5106838;28;20745;-59
2022/07/06 09:49:24;;;;;;;1999.90;999.90;;;18.80;99.90;;;;;;5111527;28;20489;-59
2022/07/06 09:51:54;;;;;;;1999.90;999.90;;;19.10;99.90;;;;;;5111452;28;20043;-59
2022/07/06 09:54:19;;;;;;;1999.90;999.90;;;19.20;97.40;;;;;;5112286;28;20077;-59
2022/07/06 09:56:50;;;;;;;1999.90;999.90;;;19.10;98.30;;;;;;5112963;28;20052;-59
2022/07/06 09:59:18;;;;;;;1999.90;999.90;;;19.10;98.90;;;;;;5112535;28;20434;-59
2022/07/06 10:01:45;;;;;;;1999.90;999.90;;;19.30;99.60;;;;;;5112276;28;20048;-59
2022/07/06 10:04:12;;;;;;;1999.90;999.90;;;19.40;99.60;;;;;;5113208;28;20040;-59
2022/07/06 10:06:40;;;;;;;1999.90;999.90;;;19.50;99.90;;;;;;5112480;28;20035;-59
2022/07/06 10:09:07;;;;;;;1999.90;999.90;;;19.60;99.40;;;;;;5111992;28;20052;-59
2022/07/06 10:11:38;;;;;;;1999.90;999.90;;;19.60;97.80;;;;;;5113254;28;20036;-59
2022/07/06 10:14:06;;;;;;;1999.90;999.90;;;19.70;97.30;;;;;;5112262;28;20044;-59
2022/07/06 10:16:35;;;;;;;1999.90;999.90;;;19.70;98.80;;;;;;5112524;28;20047;-59
2022/07/06 10:19:04;;;;;;;1999.90;999.90;;;19.70;98.10;;;;;;5115746;28;20495;-59
2022/07/06 10:21:30;;;;;;;1999.90;999.90;;;19.70;99.30;;;;;;5116508;28;20050;-59
2022/07/06 10:23:59;;;;;;;1999.90;999.90;;;19.80;98.90;;;;;;5116241;28;20131;-59
2022/07/06 10:26:25;;;;;;;1999.90;999.90;;;19.90;99.40;;;;;;5117086;28;20043;-59
2022/07/06 10:28:52;;;;;;;1999.90;999.90;;;19.90;98.70;;;;;;5097513;28;20047;-59
2022/07/06 10:31:20;;;;;;;1999.90;999.90;;;19.70;99.40;;;;;;5116420;28;20039;-59
2022/07/06 10:33:47;;;;;;;1999.90;999.90;;;19.60;99.90;;;;;;5113455;28;20044;-60
2022/07/06 10:36:13;;;;;;;1999.90;999.90;;;19.30;99.90;;;;;;5115389;28;20028;-59
2022/07/06 10:38:39;;;;;;;1999.90;999.90;;;19.40;99.90;;;;;;5112901;28;20090;-59
2022/07/06 10:41:07;;;;;;;1999.90;999.90;;;19.80;99.90;;;;;;5096642;28;20078;-59
2022/07/06 10:43:35;;;;;;;1999.90;999.90;;;20.30;98.70;;;;;;5112067;28;20134;-59
2022/07/06 10:46:07;;;;;;;1999.90;999.90;;;20.50;98.30;;;;;;5115641;28;20051;-59
2022/07/06 10:48:39;;;;;;;1999.90;999.90;;;20.30;98.50;;;;;;5115191;28;20062;-59
2022/07/06 10:51:05;;;;;;;1999.90;999.90;;;20.10;99.90;;;;;;5114967;28;20484;-59
2022/07/06 10:53:36;;;;;;;1999.90;999.90;;;20.00;99.90;;;;;;5116681;28;20078;-59
2022/07/06 10:56:05;;;;;;;1999.90;999.90;;;20.00;99.90;;;;;;5116583;28;20101;-59
2022/07/06 10:58:45;;;;;;;1999.90;999.90;;;20.50;98.40;;;;;;5114678;28;20047;-59
2022/07/06 11:01:11;;;;;;;1999.90;999.90;;;20.80;97.40;;;;;;5116370;28;20590;-59
2022/07/06 11:03:40;;;;;;;1999.90;999.90;;;21.30;96.70;;;;;;5116559;28;20040;-59
2022/07/06 11:06:20;;;;;;;1999.90;999.90;;;21.80;96.10;;;;;;5096896;28;20055;-59
2022/07/06 11:08:57;;;;;;;1999.90;999.90;;;22.10;93.80;;;;;;5115969;28;20055;-59
2022/07/06 11:11:31;;;;;;;1999.90;999.90;;;21.60;94.60;;;;;;5114843;28;20038;-59
2022/07/06 11:14:06;;;;;;;1999.90;999.90;;;21.00;95.70;;;;;;5115033;28;20075;-59
2022/07/06 11:16:36;;;;;;;1999.90;999.90;;;20.30;97.10;;;;;;5115765;28;20040;-59
2022/07/06 11:19:04;;;;;;;1999.90;999.90;;;19.80;97.90;;;;;;5115246;28;20051;-59
2022/07/06 11:21:34;;;;;;;1999.90;999.90;;;19.30;99.00;;;;;;5115489;28;20048;-59
2022/07/06 11:24:01;;;;;;;1999.90;999.90;;;19.30;99.90;;;;;;5115658;28;20043;-59
2022/07/06 11:26:27;;;;;;;1999.90;999.90;;;19.70;97.40;;;;;;5114878;28;20488;-59
2022/07/06 11:28:53;;;;;;;1999.90;999.90;;;19.80;97.10;;;;;;5097227;28;20045;-59
2022/07/06 11:31:19;;;;;;;1999.90;999.90;;;19.80;99.10;;;;;;5096422;28;20473;-60
2022/07/06 11:33:46;;;;;;;1999.90;999.90;;;20.10;97.80;;;;;;5112492;28;20069;-59
2022/07/06 11:36:14;;;;;;;1999.90;999.90;;;20.10;97.80;;;;;;5115573;28;20040;-59
2022/07/06 11:38:41;;;;;;;1999.90;999.90;;;20.50;96.30;;;;;;5115625;28;20048;-59
2022/07/06 11:41:07;;;;;;;1999.90;999.90;;;20.90;97.00;;;;;;5096397;28;20051;-60
2022/07/06 11:43:33;;;;;;;1999.90;999.90;;;20.90;94.90;;;;;;5114715;28;20051;-60
2022/07/06 11:45:58;;;;;;;1999.90;999.90;;;21.00;94.30;;;;;;5115772;28;20048;-59
2022/07/06 11:48:24;;;;;;;1999.90;999.90;;;21.30;94.10;;;;;;5114709;28;20062;-59
2022/07/06 11:51:00;;;;;;;1999.90;999.90;;;20.40;94.20;;;;;;5114769;28;20063;-59
2022/07/06 11:53:26;;;;;;;1999.90;999.90;;;19.90;96.00;;;;;;5114515;28;20046;-59
2022/07/06 11:55:52;;;;;;;1999.90;999.90;;;19.50;97.50;;;;;;5115514;28;20530;-59
2022/07/06 11:58:22;;;;;;;1999.90;999.90;;;19.70;99.20;;;;;;5115064;28;20462;-59
2022/07/06 12:01:09;;;;;;;1999.90;999.90;;;20.10;98.30;;;;;;5095675;28;20059;-59
2022/07/06 12:03:35;;;;;;;1999.90;999.90;;;20.30;95.90;;;;;;5102247;28;20031;-59
2022/07/06 12:06:02;;;;;;;1999.90;999.90;;;19.90;97.20;;;;;;5114080;28;20051;-59
2022/07/06 12:08:28;;;;;;;1999.90;999.90;;;20.10;96.70;;;;;;5102723;28;20116;-59
2022/07/06 12:10:55;;;;;;;1999.90;999.90;;;20.90;95.70;;;;;;5111519;28;21126;-59